Date,TemperatureHighF,TemperatureAvgF,TemperatureLowF,DewpointHighF,DewpointAvgF,DewpointLowF,HumidityHigh,HumidityAvg,HumidityLow,PressureMaxIn,PressureMinIn,WindSpeedMaxMPH,WindSpeedAvgMPH,GustSpeedMaxMPH,PrecipitationSumIn
2013-1-1,65,57,50,60,52,45,86,83,79,30.15,29.90,18,4,18,0.00
2013-1-2,64,61,55,60,57,52,90,87,85,30.06,29.87,16,4,16,0.01
2013-1-3,55,53,49,53,50,46,91,90,89,30.19,30.01,16,2,17,0.15
2013-1-4,53,48,44,50,46,42,93,91,88,30.28,30.17,11,1,11,0.00
2013-1-5,57,48,39,52,45,36,89,86,83,30.33,30.22,11,1,11,0.00
2013-1-6,54,51,50,50,47,45,89,86,84,30.23,30.07,13,2,13,0.12
2013-1-7,54,50,43,49,45,39,88,83,79,30.29,30.12,17,3,21,0.00
2013-1-8,63,55,49,57,50,43,84,81,79,30.30,30.20,13,1,13,0.00
2013-1-9,70,63,58,66,59,54,89,87,84,30.33,30.21,12,1,12,0.00
2013-1-10,66,61,58,63,58,54,92,91,89,30.34,30.25,18,1,22,0.02
2013-1-11,73,63,56,70,61,54,94,92,91,30.25,30.11,12,1,12,0.02
2013-1-12,74,64,0,72,62,0,96,92,91,30.15,30.05,11,0,11,0.01
2013-1-13,72,64,57,69,62,55,95,92,91,30.12,30.02,11,1,11,0.01
2013-1-14,74,66,61,71,64,59,94,92,89,30.14,30.05,20,3,20,0.01
2013-1-15,72,67,63,69,64,61,94,91,89,30.10,29.98,13,3,13,0.00
2013-1-16,72,67,62,69,64,60,94,91,87,30.02,29.91,21,7,22,0.00
2013-1-17,68,59,45,64,56,41,92,90,86,30.05,29.72,39,10,39,0.06
2013-1-18,56,48,44,48,42,38,87,80,72,30.41,30.04,24,5,25,0.00
2013-1-19,59,51,44,52,44,36,80,76,62,30.38,30.17,17,2,17,0.00
2013-1-20,66,57,50,57,50,44,84,78,69,30.17,30.01,19,3,19,0.01
2013-1-21,65,56,48,54,47,41,79,70,59,30.07,29.94,14,3,17,0.00
2013-1-22,58,51,44,44,33,23,64,50,31,30.25,30.02,26,10,26,0.00
2013-1-23,58,49,40,39,33,26,68,55,46,30.34,30.16,18,5,18,0.00
2013-1-24,68,56,44,55,45,34,75,67,48,30.33,30.08,32,9,33,0.00
2013-1-25,59,48,38,51,40,29,78,74,67,30.34,30.09,16,2,16,0.00
2013-1-26,68,58,51,60,52,45,82,79,76,30.22,30.07,19,4,19,0.00
2013-1-27,55,51,47,49,45,41,82,81,79,30.39,30.22,19,3,19,0.01
2013-1-28,65,55,48,60,50,43,85,83,81,30.36,30.22,11,1,11,0.00
2013-1-29,70,60,52,66,57,48,91,87,84,30.22,30.05,16,2,17,0.00
2013-1-30,69,66,57,66,63,54,94,92,88,30.05,29.64,37,16,37,0.26
2013-1-31,57,51,46,54,45,40,91,81,68,30.16,29.73,31,9,31,0.07
2013-2-1,59,50,44,45,36,23,72,60,42,30.30,30.14,32,8,32,0.00
2013-2-2,59,46,34,44,32,19,70,57,44,30.31,30.07,15,2,15,0.00
2013-2-3,62,54,46,42,38,36,69,56,41,30.08,29.91,27,8,28,0.00
2013-2-4,58,50,44,42,38,33,72,63,54,30.09,29.99,9,0,9,0.00
2013-2-5,68,55,46,58,47,38,84,75,63,30.03,29.92,20,3,20,0.00
2013-2-6,68,60,55,60,54,49,88,78,65,30.10,29.97,14,1,14,0.00
2013-2-7,60,58,0,59,56,0,96,89,81,30.08,29.68,7,0,9,0.23
2013-2-8,62,37,0,58,35,0,91,58,86,30.01,29.72,15,2,16,0.00
2013-2-9,61,52,46,55,48,41,88,83,77,30.26,30.01,15,2,15,0.00
2013-2-10,68,57,46,61,52,41,84,82,80,30.29,30.10,16,2,16,0.00
2013-2-11,68,64,61,64,60,58,90,88,84,30.14,29.99,23,5,23,0.60
2013-2-12,61,59,56,58,57,54,93,92,90,30.05,29.77,14,2,14,1.48
2013-2-13,76,67,54,72,63,49,95,88,77,29.87,29.65,38,9,38,1.98
2013-2-14,54,51,48,49,46,42,83,82,81,30.02,29.83,16,2,16,0.00
2013-2-15,61,51,42,54,46,39,90,82,77,30.06,29.92,14,2,14,0.00
2013-2-16,54,48,41,48,42,33,83,81,73,30.04,29.81,36,11,36,0.01
2013-2-17,49,41,34,34,30,25,74,65,51,30.28,30.03,27,12,29,0.00
2013-2-18,55,49,37,40,32,26,67,53,40,30.38,30.19,16,2,16,0.00
2013-2-19,63,56,46,56,50,36,84,78,67,30.20,29.91,28,6,29,0.05
2013-2-20,61,50,42,51,42,36,84,76,68,30.12,30.01,19,3,20,0.00
2013-2-21,68,54,43,56,45,37,79,71,47,30.12,30.01,13,1,14,0.00
2013-2-22,60,52,0,59,49,0,99,77,77,30.07,29.92,18,2,18,0.10
2013-2-23,64,54,0,62,52,0,99,84,91,29.97,29.75,19,4,19,1.31
2013-2-24,61,56,53,59,54,51,94,93,88,29.94,29.76,20,5,20,0.00
2013-2-25,59,54,48,57,52,46,93,91,89,29.97,29.78,21,2,21,1.08
2013-2-26,70,63,50,66,60,48,95,91,83,29.86,29.53,41,12,41,0.76
2013-2-27,61,54,50,56,49,45,85,81,75,29.88,29.69,24,8,24,0.00
2013-2-28,62,55,48,49,45,40,81,70,56,29.86,29.75,31,9,31,0.00
2013-3-1,52,48,44,40,37,34,71,65,59,29.93,29.83,20,7,20,0.00
2013-3-2,49,45,40,39,35,32,75,68,61,29.92,29.83,28,10,28,0.00
2013-3-3,46,41,36,36,32,28,75,69,61,30.02,29.88,27,11,27,0.00
2013-3-4,56,45,35,46,34,27,76,67,52,30.16,30.01,19,5,19,0.00
2013-3-5,66,57,47,58,49,40,79,76,70,30.09,29.71,36,10,36,0.07
2013-3-6,60,48,43,53,37,33,79,65,57,30.06,29.74,39,20,39,0.00
2013-3-7,56,46,38,44,37,30,76,70,63,30.19,30.05,25,4,25,0.00
2013-3-8,61,50,44,49,41,37,78,73,59,30.22,30.10,15,1,15,0.00
2013-3-9,59,50,41,46,42,34,76,71,61,30.27,30.16,15,1,15,0.00
2013-3-10,64,55,46,56,48,40,80,78,76,30.21,30.12,15,1,15,0.00
2013-3-11,68,61,54,62,56,49,85,81,78,30.12,29.83,21,3,21,0.01
2013-3-12,65,62,58,61,59,52,92,88,80,29.93,29.77,25,9,27,0.14
2013-3-13,65,58,50,52,46,38,80,66,48,30.10,29.93,31,10,31,0.00
2013-3-14,56,49,42,40,34,30,71,56,43,30.26,30.08,23,6,23,0.00
2013-3-15,70,54,44,50,43,36,76,66,41,30.19,30.01,23,6,23,0.00
2013-3-16,77,65,54,55,50,46,77,60,35,30.03,29.85,28,9,28,0.00
2013-3-17,74,64,57,64,55,50,79,74,61,30.02,29.91,23,8,23,0.00
2013-3-18,68,63,60,62,58,54,86,82,77,30.00,29.78,40,2,40,0.33
2013-3-19,73,66,60,65,60,50,90,79,64,29.95,29.80,21,6,22,0.05
2013-3-20,62,56,50,50,42,39,68,59,47,30.02,29.80,17,1,17,0.00
2013-3-21,59,53,46,42,35,28,70,53,37,29.89,29.77,23,11,30,0.00
2013-3-22,62,50,45,46,35,25,71,56,42,30.04,29.89,11,0,12,0.00
2013-3-23,62,55,50,55,48,41,83,78,71,29.99,29.77,19,2,19,0.27
2013-3-24,73,63,55,70,59,50,93,88,83,29.81,29.42,38,9,38,1.81
2013-3-25,58,53,47,47,44,40,83,71,58,29.87,29.69,40,20,40,0.00
2013-3-26,50,46,39,36,34,30,69,61,56,30.17,30.00,33,17,34,0.00
2013-3-27,59,49,40,42,35,31,72,60,44,30.24,30.12,19,6,19,0.00
2013-3-28,62,51,42,42,37,33,70,59,36,30.26,30.13,18,3,19,0.00
2013-3-29,62,54,45,52,46,38,78,72,64,30.28,30.16,15,2,15,0.01
2013-3-30,69,62,55,58,52,49,78,70,52,30.19,30.02,26,9,27,0.00
2013-3-31,75,64,58,64,56,51,79,75,69,30.04,29.85,29,11,29,0.00
2013-4-1,77,71,63,68,63,58,85,77,71,29.90,29.80,22,6,22,0.15
2013-4-2,69,62,57,58,53,47,78,71,59,30.06,29.90,16,2,17,0.00
2013-4-3,69,60,55,63,55,50,83,81,78,30.12,29.99,16,2,19,0.10
2013-4-4,66,60,52,63,56,50,91,88,83,30.10,29.77,19,5,24,0.56
2013-4-5,56,51,47,54,49,45,93,92,91,29.99,29.77,22,4,22,0.34
2013-4-6,66,58,50,61,54,48,91,86,78,30.16,29.97,19,2,19,0.00
2013-4-7,73,64,58,66,59,53,85,83,81,30.17,30.09,13,2,14,0.00
2013-4-8,75,68,57,70,63,53,89,84,79,30.13,30.05,19,3,19,0.01
2013-4-9,78,71,62,72,66,59,89,84,80,30.16,30.07,20,5,20,0.01
2013-4-10,77,70,64,69,65,60,89,84,77,30.11,29.96,20,4,21,0.00
2013-4-11,71,69,68,68,66,64,91,88,85,29.96,29.77,21,4,22,0.00
2013-4-12,76,73,70,73,70,67,93,92,88,29.79,29.66,36,11,37,0.39
2013-4-13,76,67,60,67,59,54,88,75,64,29.95,29.79,18,4,18,0.00
2013-4-14,70,66,60,64,60,53,87,81,76,30.01,29.85,12,1,12,0.86
2013-4-15,73,67,63,69,64,59,91,89,87,30.09,29.79,14,2,15,0.01
2013-4-16,76,71,66,71,66,62,90,86,82,30.18,30.07,13,1,13,0.00
2013-4-17,77,70,65,72,66,61,90,85,80,30.16,30.06,14,1,14,0.01
2013-4-18,78,72,68,72,67,63,88,85,81,30.06,29.96,18,2,19,0.00
2013-4-19,78,74,67,74,70,64,91,88,86,29.96,29.78,35,13,36,0.74
2013-4-20,67,57,53,64,54,50,91,89,85,30.16,29.91,27,6,27,0.44
2013-4-21,67,60,52,61,55,48,87,84,80,30.22,30.15,30,3,30,0.02
2013-4-22,70,63,54,61,55,49,83,76,70,30.17,30.04,26,4,26,0.05
2013-4-23,66,60,55,60,54,49,81,79,74,30.15,30.06,15,1,16,0.00
2013-4-24,76,66,56,68,60,51,86,81,75,30.12,30.01,20,3,21,0.01
2013-4-25,82,73,66,75,67,62,87,82,76,30.15,30.03,16,3,17,0.00
2013-4-26,71,69,65,65,62,58,84,80,77,30.30,30.13,21,2,21,0.00
2013-4-27,75,70,60,66,62,54,82,78,73,30.25,30.14,17,2,17,0.00
2013-4-28,76,71,66,68,64,60,83,79,75,30.15,29.95,25,4,25,0.00
2013-4-29,76,71,66,71,66,62,89,85,82,29.98,29.86,19,5,19,0.08
2013-4-30,76,70,66,71,66,62,91,88,86,30.02,29.89,17,1,17,0.01
2013-5-1,69,67,66,64,63,62,89,88,85,30.08,29.96,14,2,15,0.00
2013-5-2,70,69,67,67,65,63,91,88,85,30.06,29.98,26,4,26,0.28
2013-5-3,68,66,63,65,63,60,91,90,90,29.92,29.88,27,5,27,0.12
2013-5-4,69,66,63,67,63,60,93,91,89,29.88,29.76,26,4,26,0.70
2013-5-5,73,68,64,68,65,59,93,89,81,29.78,29.65,25,4,25,0.67
2013-5-6,72,66,57,62,57,52,84,73,65,29.89,29.80,23,5,23,0.00
2013-5-7,73,66,60,63,57,53,80,73,62,29.93,29.84,19,4,19,0.00
2013-5-8,81,69,57,65,59,50,80,71,50,30.02,29.92,24,4,26,0.00
2013-5-9,86,73,65,75,66,60,85,77,67,30.05,29.98,24,6,24,0.00
2013-5-10,84,74,67,75,66,60,82,76,65,30.06,29.94,22,5,24,0.00
2013-5-11,85,76,69,74,69,64,86,81,69,29.97,29.83,21,6,24,0.06
2013-5-12,81,75,70,71,66,58,88,76,59,29.96,29.83,25,8,25,0.00
2013-5-13,75,67,58,58,49,45,66,54,36,30.09,29.94,19,5,19,0.00
2013-5-14,74,66,55,53,48,42,65,54,42,30.20,30.08,15,3,16,0.00
2013-5-15,88,76,62,66,63,55,77,65,46,30.15,29.98,30,11,30,0.00
2013-5-16,87,75,67,70,64,59,81,71,53,30.05,29.96,16,6,18,0.00
2013-5-17,85,75,69,76,68,64,85,79,74,30.06,29.97,19,6,20,0.00
2013-5-18,80,75,72,74,70,67,88,85,82,30.08,30.02,17,6,17,0.00
2013-5-19,81,77,74,76,73,71,90,85,80,30.06,29.97,23,6,23,0.01
2013-5-20,80,77,75,76,73,72,91,88,85,30.06,29.96,23,7,24,0.08
2013-5-21,80,77,74,76,72,70,90,87,84,30.02,29.92,19,6,20,0.00
2013-5-22,82,79,74,77,73,70,89,84,81,29.95,29.86,17,4,18,0.00
2013-5-23,87,79,72,78,72,68,90,80,67,29.90,29.80,20,5,20,0.00
2013-5-24,84,78,71,68,63,54,77,62,44,30.09,29.84,28,7,28,0.00
2013-5-25,74,69,63,57,53,50,66,56,47,30.24,30.08,16,2,16,0.00
2013-5-26,84,73,65,70,62,57,78,67,54,30.20,30.09,20,4,20,0.00
2013-5-27,84,77,73,74,68,65,78,72,67,30.18,30.10,16,3,16,0.00
2013-5-28,80,76,70,71,68,63,81,77,72,30.16,30.09,19,3,19,0.00
2013-5-29,81,77,71,72,69,65,81,77,74,30.17,30.08,17,3,18,0.00
2013-5-30,82,80,75,75,73,69,84,80,77,30.18,30.09,18,3,19,0.00
2013-5-31,82,78,75,76,73,70,87,83,81,30.15,30.07,19,4,19,0.00
2013-6-1,82,78,74,75,73,70,87,83,79,30.08,30.00,19,4,21,0.00
2013-6-2,82,79,77,76,74,72,87,84,82,30.03,29.86,22,6,22,0.00
2013-6-3,82,80,79,77,76,74,88,86,83,29.90,29.82,20,6,21,0.06
2013-6-4,86,82,79,81,77,75,88,85,83,29.95,29.87,21,4,21,0.02
2013-6-5,80,79,76,77,76,73,91,89,88,29.96,29.86,17,3,17,0.03
2013-6-6,79,76,74,76,73,70,93,91,89,29.90,29.55,27,3,27,1.13
2013-6-7,83,76,73,77,73,71,94,92,80,29.83,29.37,29,13,30,0.38
2013-6-8,91,81,76,81,76,72,89,84,74,30.03,29.82,23,8,23,0.00
2013-6-9,84,81,79,80,76,75,90,87,82,30.06,29.98,24,6,25,0.00
2013-6-10,85,81,75,80,77,71,90,87,84,30.04,29.90,50,10,50,0.77
2013-6-11,93,86,75,83,78,72,91,78,66,30.00,29.89,20,7,20,0.00
2013-6-12,96,87,80,82,76,72,80,70,53,29.95,29.85,19,5,19,0.00
2013-6-13,96,89,80,83,78,74,83,71,56,29.89,29.71,25,8,25,0.00
2013-6-14,86,82,77,77,72,67,79,71,56,29.92,29.67,24,3,25,0.00
2013-6-15,83,80,73,74,69,65,80,71,61,30.05,29.92,18,2,21,0.00
2013-6-16,87,80,75,74,69,67,78,70,60,30.10,30.01,18,3,18,0.00
2013-6-17,87,82,76,79,75,69,86,80,74,30.03,29.89,21,5,21,0.04
2013-6-18,91,84,76,82,77,73,89,81,69,29.94,29.81,26,8,27,0.03
2013-6-19,88,80,74,80,74,69,88,82,77,29.98,29.85,26,6,26,0.57
2013-6-20,81,77,74,78,73,70,91,89,85,30.08,29.94,17,2,18,0.02
2013-6-21,84,78,72,77,73,68,89,85,79,30.10,30.02,16,2,17,0.00
2013-6-22,82,79,76,77,74,71,88,85,83,30.10,30.02,13,1,13,0.00
2013-6-23,86,81,75,80,76,72,90,85,81,30.12,30.05,16,2,16,0.49
2013-6-24,89,82,77,82,77,74,89,84,78,30.16,30.06,17,3,17,0.00
2013-6-25,90,82,78,82,76,71,88,81,73,30.11,30.01,17,4,18,0.03
2013-6-26,91,82,76,83,76,71,88,83,76,30.04,29.91,29,6,29,0.01
2013-6-27,93,84,78,84,77,71,89,81,68,29.93,29.76,27,8,30,0.00
2013-6-28,94,84,79,84,77,73,85,80,73,29.81,29.66,39,12,39,0.00
2013-6-29,86,81,77,80,76,73,87,84,79,29.70,29.65,19,7,19,0.68
2013-6-30,89,82,79,81,77,74,88,84,77,29.79,29.70,32,12,32,0.68
2013-7-1,85,80,74,80,76,70,90,88,83,29.95,29.75,33,12,33,0.24
2013-7-2,82,78,75,78,75,73,92,90,88,30.08,29.92,28,7,28,0.13
2013-7-3,85,80,76,80,77,73,91,89,85,30.12,30.04,23,4,25,0.00
2013-7-4,86,83,80,80,78,77,89,86,82,30.14,30.08,26,6,28,0.00
2013-7-5,86,82,79,81,78,75,90,86,83,30.14,30.07,24,5,27,0.07
2013-7-6,85,82,78,80,77,73,88,85,82,30.13,30.05,25,4,26,0.04
2013-7-7,86,82,79,79,77,75,88,85,79,30.12,30.06,19,4,19,0.00
2013-7-8,86,83,77,81,77,73,88,82,79,30.13,30.06,15,3,16,0.00
2013-7-9,89,82,77,81,76,73,88,82,77,30.14,30.03,22,4,23,0.00
2013-7-10,82,79,78,77,74,72,86,83,81,30.07,29.95,16,1,16,0.00
2013-7-11,88,83,79,81,77,74,86,82,79,29.95,29.81,32,9,32,0.01
2013-7-12,83,78,71,79,74,67,90,87,83,29.91,29.81,25,1,27,3.62
2013-7-13,85,79,72,80,76,69,93,90,86,29.97,29.85,15,1,16,0.09
2013-7-14,81,79,76,78,75,73,91,89,87,30.12,29.95,20,2,20,0.60
2013-7-15,85,81,77,81,77,74,91,88,85,30.16,30.08,15,2,17,0.19
2013-7-16,87,82,78,81,77,73,90,86,81,30.19,30.13,15,1,15,0.00
2013-7-17,88,82,77,82,76,70,89,83,75,30.17,30.04,17,2,17,0.01
2013-7-18,89,81,74,82,74,69,86,80,75,30.10,30.00,18,2,18,0.00
2013-7-20,86,80,77,80,75,70,87,84,79,30.03,29.92,37,10,38,0.39
2013-7-21,85,79,76,80,75,72,90,88,85,30.01,29.91,33,5,33,0.44
2013-7-22,90,82,77,82,77,72,90,84,76,29.99,29.89,32,10,32,0.32
2013-7-23,90,82,77,81,76,73,89,83,74,29.91,29.77,28,9,28,0.20
2013-7-24,84,80,77,78,75,71,88,85,81,29.80,29.72,17,3,17,0.01
2013-7-25,94,80,74,86,75,69,88,84,76,29.91,29.74,15,2,15,0.56
2013-7-26,76,76,76,72,72,72,86,86,86,29.90,29.90,0,0,0,0.00
2013-7-27,81,80,80,76,75,75,85,85,84,29.88,29.86,3,1,4,0.00
2013-7-28,91,82,79,86,77,74,88,85,80,29.97,29.86,15,3,15,0.00
2013-7-29,93,82,76,85,77,71,89,84,77,30.11,29.94,24,6,24,0.15
2013-7-30,90,82,77,85,78,72,90,86,81,30.11,30.02,17,3,18,0.00
2013-7-31,89,81,76,84,77,72,91,88,83,30.07,29.94,23,3,23,1.18
2013-8-1,88,79,76,83,75,73,92,90,86,29.96,29.88,31,4,31,0.23
2013-8-2,89,82,76,84,78,73,91,86,80,29.98,29.88,24,7,24,0.00
2013-8-3,89,83,78,82,78,74,89,85,80,29.95,29.88,16,3,17,0.06
2013-8-4,93,85,79,83,79,75,88,81,72,29.94,29.83,20,5,20,0.00
2013-8-5,86,82,78,80,76,72,86,82,78,29.96,29.88,15,1,15,0.15
2013-8-6,81,80,80,74,74,74,81,80,80,29.90,29.87,9,1,9,0.00
2013-8-7,81,80,79,73,73,72,78,77,76,29.97,29.94,7,0,7,0.00
2013-8-8,88,82,77,83,76,71,88,83,78,30.00,29.92,14,2,15,0.50
2013-8-9,90,84,80,84,78,76,88,83,76,30.05,29.94,17,4,17,0.00
2013-8-10,90,85,79,83,78,75,88,81,72,30.08,30.01,23,6,23,0.00
2013-8-11,94,85,80,87,80,76,89,84,76,30.10,30.01,18,4,19,0.49
2013-8-12,97,85,79,86,79,73,88,82,70,30.05,29.91,22,4,24,0.44
2013-8-13,95,85,79,86,79,73,90,83,69,29.97,29.81,21,6,22,0.83
2013-8-14,95,82,75,85,76,70,88,83,71,29.94,29.78,26,5,26,1.83
2013-8-15,78,75,72,75,72,69,93,91,87,30.00,29.89,16,1,16,0.35
2013-8-16,85,77,73,83,75,70,94,93,91,30.00,29.89,13,1,13,1.89
2013-8-17,82,77,74,80,75,72,95,94,92,30.09,29.95,9,1,10,0.24
2013-8-18,86,80,72,82,77,70,95,92,88,30.11,30.02,23,1,23,0.43
2013-8-19,88,84,78,82,79,74,92,86,82,30.04,29.95,19,4,20,0.01
2013-8-20,88,83,76,82,78,73,91,86,81,30.08,29.98,15,1,15,0.01
2013-8-21,88,83,79,82,78,74,88,84,81,30.14,30.05,15,1,15,0.00
2013-8-22,87,83,74,82,78,69,90,84,80,30.09,29.97,29,2,29,1.49
2013-8-23,93,82,75,85,77,72,89,84,76,30.00,29.92,20,4,20,0.00
2013-8-24,83,80,77,78,75,72,88,85,82,30.12,29.96,19,1,19,0.00
2013-8-25,83,79,74,74,72,70,86,80,73,30.20,30.11,21,3,21,0.00
2013-8-26,82,78,73,76,72,66,81,79,76,30.18,30.05,17,2,18,0.00
2013-8-27,87,77,73,80,72,69,88,84,79,30.08,29.99,11,0,11,0.00
2013-8-29,93,89,84,82,79,76,77,72,67,29.85,29.81,12,2,13,0.00
2013-8-30,87,83,80,81,77,74,85,82,77,29.91,29.82,14,1,14,0.00
2013-8-31,87,82,78,82,78,75,91,87,83,29.92,29.83,15,2,15,0.01
2013-9-1,94,86,82,84,80,78,88,81,73,29.90,29.80,24,10,24,0.00
2013-9-2,94,83,75,84,77,69,89,83,71,29.91,29.78,30,6,30,0.36
2013-9-3,92,83,75,85,77,70,90,82,72,29.91,29.80,18,3,18,0.01
2013-9-4,94,83,78,85,77,71,86,81,76,29.98,29.87,24,1,24,0.21
2013-9-10,85,81,77,78,74,71,83,79,76,30.13,30.03,6,2,22,0.00
2013-9-11,84,79,77,79,75,72,90,86,80,30.13,30.01,5,1,14,0.21
2013-9-12,87,80,75,81,75,72,90,84,75,30.02,29.83,7,2,15,0.00
2013-9-13,92,82,76,83,75,72,88,81,70,29.85,29.69,15,4,25,0.03
2013-9-14,86,80,74,78,74,68,85,82,78,29.96,29.72,5,2,19,0.00
2013-9-15,85,80,77,81,76,73,89,87,84,30.11,29.95,6,1,17,0.69
2013-9-16,87,81,77,82,77,73,92,87,84,30.12,30.01,15,1,15,0.01
2013-9-17,80,77,75,76,73,69,90,87,82,30.17,30.05,25,3,25,0.00
2013-9-18,80,75,71,71,68,64,87,80,72,30.19,30.09,18,2,18,0.00
2013-9-19,81,75,69,73,68,62,80,77,73,30.14,30.07,13,2,13,0.00
2013-9-20,85,78,72,79,71,66,85,79,74,30.08,29.95,13,1,13,0.00
2013-9-21,84,81,77,76,74,72,84,79,76,29.85,29.75,26,8,26,0.01
2013-9-22,78,75,73,74,72,70,91,89,84,29.85,29.71,20,4,20,0.05
2013-9-23,77,75,70,73,70,68,91,86,79,30.01,29.84,12,1,12,0.01
2013-9-24,79,76,74,71,69,67,81,79,77,30.01,29.90,25,2,25,0.00
2013-9-25,78,76,72,75,72,69,91,88,82,29.86,29.76,11,2,15,0.89
2013-9-26,74,70,68,71,68,65,93,92,89,29.95,29.77,14,2,14,0.12
2013-9-27,78,71,64,71,67,61,92,87,80,30.07,29.93,21,2,21,0.00
2013-9-28,77,71,64,69,64,58,84,80,76,30.13,30.06,13,3,16,0.00
2013-9-29,77,71,65,69,64,59,85,79,74,30.08,29.99,15,2,15,0.00
2013-9-30,77,68,65,68,61,58,83,79,73,30.07,29.98,9,0,12,0.00
2013-10-1,78,70,62,69,62,56,82,78,70,30.15,30.03,14,2,14,0.00
2013-10-2,82,75,65,72,67,59,83,75,68,30.14,30.06,13,1,13,0.00
2013-10-3,82,74,66,76,68,61,84,81,78,30.13,30.05,12,1,12,0.00
2013-10-4,82,76,72,78,71,68,91,87,83,30.14,30.05,13,0,13,0.01
2013-10-5,82,76,71,77,71,68,91,85,79,30.11,30.03,10,1,10,0.02
2013-10-6,84,78,71,79,73,67,91,86,83,30.04,29.90,16,1,16,0.01
2013-10-7,86,79,73,82,75,70,92,89,84,29.90,29.78,19,2,19,0.36
2013-10-8,74,74,72,72,71,69,92,92,90,29.97,29.82,15,2,15,0.39
2013-10-9,76,56,0,71,52,0,91,68,82,30.10,30.02,23,3,23,0.00
2013-10-10,78,69,60,69,62,56,86,81,71,30.09,29.96,23,4,23,0.00
2013-10-11,82,74,64,72,65,58,83,75,63,30.03,29.91,12,2,12,0.00
2013-10-12,88,74,66,73,65,59,80,74,54,30.04,29.94,10,0,10,0.00
2013-10-13,77,74,69,71,63,0,85,75,78,30.12,30.02,11,0,13,0.00
2013-10-14,73,71,69,69,66,63,88,86,82,30.12,30.03,20,4,20,0.00
2013-10-15,71,68,66,67,64,62,89,87,85,30.08,29.99,21,2,21,0.00
2013-10-16,77,70,64,72,66,60,90,87,83,30.02,29.95,7,0,10,0.00
2013-10-17,82,73,67,76,69,64,91,86,81,30.00,29.89,18,2,19,0.01
2013-10-18,85,77,72,79,72,69,91,86,80,29.99,29.90,15,2,15,0.00
2013-10-19,84,75,69,78,71,65,91,87,82,29.96,29.86,27,2,27,0.08
2013-10-20,73,68,64,67,63,59,87,85,81,30.04,29.91,16,2,16,0.01
2013-10-21,71,68,66,67,64,62,87,85,84,30.09,29.99,10,1,10,0.00
2013-10-22,68,66,66,64,62,62,88,87,85,30.02,29.84,6,0,6,0.00
2013-10-23,71,66,61,64,60,50,91,82,67,30.04,29.79,29,8,33,0.00
2013-10-24,68,58,48,53,48,40,76,69,58,30.21,30.04,15,2,20,0.00
2013-10-25,63,58,52,54,50,42,79,75,63,30.33,30.15,21,3,21,0.00
2013-10-26,68,56,48,55,46,41,77,70,53,30.32,30.16,12,1,12,0.00
2013-10-27,74,61,51,58,51,44,78,71,55,30.18,30.08,15,2,15,0.00
2013-10-28,76,67,60,65,58,53,78,74,66,30.26,30.13,12,0,12,0.00
2013-10-29,75,66,59,66,59,53,82,77,71,30.33,30.23,11,0,11,0.01
2013-10-30,78,68,61,70,61,55,84,79,73,30.32,30.18,10,0,10,0.01
2013-10-31,79,71,62,72,65,56,87,83,80,30.20,29.99,18,2,18,0.01
2013-11-1,80,74,71,75,70,68,90,87,81,29.99,29.77,32,11,32,0.29
2013-11-2,73,67,62,70,58,0,91,79,77,29.97,29.77,22,5,22,1.38
2013-11-3,66,59,53,58,51,46,80,73,62,30.27,29.96,19,2,19,0.00
2013-11-4,66,60,53,56,51,46,77,71,59,30.38,30.25,24,2,24,0.00
2013-11-5,68,59,50,59,52,43,83,77,72,30.37,30.28,19,4,19,0.05
2013-11-6,73,66,60,69,62,55,88,86,83,30.28,30.08,21,3,21,0.01
2013-11-7,76,68,63,71,65,58,91,87,83,30.08,29.95,24,4,24,0.00
2013-11-8,63,56,50,58,48,41,84,74,63,30.28,30.04,23,3,23,0.00
2013-11-9,67,59,51,58,51,44,79,76,73,30.32,30.21,13,0,13,0.00
2013-11-10,71,62,57,64,55,51,82,79,75,30.25,30.14,10,0,10,0.00
2013-11-11,68,60,53,60,54,48,82,80,78,30.25,30.15,14,1,14,0.00
2013-11-12,70,60,49,63,54,41,86,80,71,30.27,30.01,32,4,32,0.00
2013-11-13,51,44,38,41,34,31,77,69,56,30.50,30.27,38,6,38,0.00
2013-11-14,61,50,40,51,42,31,78,73,68,30.48,30.30,15,1,15,0.00
2013-11-15,64,59,55,59,54,48,88,83,78,30.30,30.14,8,1,8,0.23
2013-11-16,71,65,61,68,59,0,91,85,86,30.21,30.13,12,1,12,0.05
2013-11-17,74,68,64,71,65,61,92,90,88,30.16,30.00,11,2,11,0.00
2013-11-18,78,72,65,75,69,60,94,92,85,30.00,29.85,25,5,25,0.00
2013-11-19,64,58,53,60,50,46,85,76,70,30.15,29.93,25,1,25,0.00
2013-11-20,59,56,52,52,49,45,80,77,72,30.29,30.12,21,2,21,0.03
2013-11-21,65,60,56,60,55,50,88,83,80,30.34,30.26,16,2,16,0.03
2013-11-22,73,67,62,69,64,58,91,89,88,30.31,30.16,10,0,10,0.01
2013-11-23,75,67,61,71,64,58,93,89,88,30.16,30.00,19,4,19,0.01
2013-11-24,61,49,42,58,42,31,88,76,66,30.48,30.09,25,3,25,0.00
2013-11-25,51,46,39,45,37,28,82,72,65,30.46,30.18,21,2,21,0.04
2013-11-26,69,61,50,66,57,45,94,87,82,30.18,29.64,39,6,39,1.49
2013-11-27,69,55,40,67,52,36,94,91,86,30.23,29.54,34,17,39,0.04
2013-11-28,48,40,34,42,36,30,87,84,80,30.49,30.23,25,2,25,0.00
2013-11-29,57,45,38,50,40,33,84,81,77,30.51,30.42,11,0,11,0.00
2013-11-30,58,50,44,51,43,38,81,79,74,30.48,30.30,13,2,18,0.00
2013-12-1,59,53,49,53,47,43,84,81,78,30.30,30.01,9,1,9,0.00
2013-12-2,64,55,52,57,50,48,88,84,78,30.01,29.82,13,2,13,0.00
2013-12-3,64,57,0,60,53,0,89,86,84,29.98,29.88,13,1,13,0.01
2013-12-4,74,65,59,70,62,56,91,88,84,30.11,29.96,13,2,13,0.00
2013-12-5,72,66,61,69,63,58,93,91,88,30.16,30.07,18,5,18,0.00
2013-12-6,72,68,64,69,64,0,93,89,90,30.17,30.08,21,7,22,0.00
2013-12-7,77,67,56,74,65,54,94,92,89,30.29,30.11,19,4,19,0.05
2013-12-8,57,53,52,54,51,50,94,93,92,30.32,30.21,12,1,13,0.00
2013-12-9,69,60,52,68,58,50,96,94,94,30.23,30.06,16,2,16,0.01
2013-12-10,74,64,50,72,62,47,96,94,88,30.29,30.00,33,10,33,0.10
2013-12-11,57,52,48,53,48,44,89,86,81,30.39,30.29,14,0,14,0.00
2013-12-12,57,50,43,47,42,35,81,75,64,30.39,30.27,15,3,15,0.00
2013-12-13,59,50,42,50,43,35,79,76,73,30.39,30.19,15,1,15,0.00
2013-12-14,67,62,54,64,58,47,93,86,79,30.19,29.83,33,8,33,0.98
2013-12-15,66,58,47,64,55,43,93,91,86,30.17,29.82,27,10,27,0.18
2013-12-16,61,48,40,55,44,36,88,85,80,30.25,30.16,14,4,16,0.00
2013-12-17,66,54,46,55,47,41,84,78,65,30.27,30.13,18,3,18,0.00
2013-12-18,58,51,44,45,41,35,74,68,54,30.33,30.15,24,4,24,0.00
2013-12-19,64,52,41,57,45,34,80,78,74,30.35,30.23,9,0,9,0.00
2013-12-20,72,61,52,66,53,0,85,76,77,30.26,30.16,9,0,9,0.00
2013-12-21,72,66,60,68,62,55,92,87,82,30.17,30.06,26,5,26,0.01
2013-12-22,72,68,65,70,66,63,95,94,91,30.14,30.07,25,10,25,0.00
2013-12-23,73,67,59,71,65,57,96,94,92,30.14,30.04,24,7,24,0.13
2013-12-24,59,52,44,57,49,39,94,89,80,30.34,30.10,25,10,25,0.01
2013-12-25,51,46,39,44,40,34,82,80,76,30.42,30.30,19,2,19,0.00
2013-12-26,51,48,45,46,43,39,82,80,78,30.32,30.23,20,4,20,0.00
2013-12-27,58,52,48,50,45,41,83,78,72,30.40,30.29,14,1,14,0.00
2013-12-28,60,53,46,54,47,39,86,79,74,30.37,30.01,16,1,16,0.00
2013-12-29,70,64,54,68,61,50,93,90,86,30.01,29.84,25,8,25,0.95
2013-12-30,61,54,48,55,50,45,90,86,81,30.20,30.00,19,4,19,0.02
2013-12-31,56,54,50,50,45,0,83,76,79,30.37,30.17,15,2,16,0.00
2014-1-1,54,52,49,50,47,44,89,84,81,30.36,30.13,8,0,8,0.12
2014-1-2,60,55,47,58,52,44,93,92,89,30.14,29.71,38,5,38,0.95